Time;durP1;ratioP1;P1;durP2;ratioP2;P2;SDS_P1;SDS_P2;PMS_P1;PMS_P2;Temp;Humidity;BMP_temperature;BMP_pressure;BME280_temperature;BME280_humidity;BME280_pressure;Samples;Min_cycle;Max_cycle;Signal;HPM_P1;HPM_P2
2023/08/31 00:00:29;;;;;;;14.77;6.63;;;11.80;99.90;;;;;;4975536;28;20041;-66
2023/08/31 00:02:55;;;;;;;14.70;6.43;;;11.80;99.90;;;;;;4977935;28;20015;-67
2023/08/31 00:05:21;;;;;;;13.95;5.85;;;11.80;99.90;;;;;;4976647;28;20026;-67
2023/08/31 00:07:51;;;;;;;15.15;6.15;;;11.80;99.90;;;;;;4977087;28;20058;-68
2023/08/31 00:10:17;;;;;;;9.93;5.57;;;11.80;99.90;;;;;;4968955;28;20041;-68
2023/08/31 00:12:42;;;;;;;18.17;6.38;;;11.90;99.90;;;;;;4976361;28;20042;-67
2023/08/31 00:15:09;;;;;;;7.38;5.28;;;11.90;99.90;;;;;;4976309;28;20036;-67
2023/08/31 00:17:34;;;;;;;8.85;6.30;;;11.90;99.90;;;;;;4979299;28;20022;-67
2023/08/31 00:20:00;;;;;;;10.18;6.18;;;11.90;99.90;;;;;;4974701;28;20563;-66
2023/08/31 00:22:26;;;;;;;8.50;4.47;;;11.90;99.90;;;;;;4981511;28;20034;-67
2023/08/31 00:24:52;;;;;;;8.32;5.63;;;12.00;99.90;;;;;;4975496;28;20023;-66
2023/08/31 00:27:18;;;;;;;13.30;5.30;;;11.90;99.90;;;;;;4978280;28;20376;-65
2023/08/31 00:29:49;;;;;;;6.65;4.80;;;11.90;99.90;;;;;;4976101;28;20161;-67
2023/08/31 00:32:15;;;;;;;9.27;4.93;;;11.90;99.90;;;;;;4976724;28;20025;-67
2023/08/31 00:34:40;;;;;;;10.02;5.05;;;11.80;99.90;;;;;;4975960;28;20046;-66
2023/08/31 00:37:06;;;;;;;11.88;5.65;;;11.80;99.90;;;;;;4976899;28;20030;-67
2023/08/31 00:39:33;;;;;;;8.45;5.05;;;11.80;99.90;;;;;;4995661;28;20038;-67
2023/08/31 00:41:59;;;;;;;9.10;5.57;;;11.80;99.90;;;;;;4977101;28;20033;-68
2023/08/31 00:44:24;;;;;;;9.45;5.18;;;11.80;99.90;;;;;;4977200;28;20022;-67
2023/08/31 00:46:50;;;;;;;10.15;5.53;;;11.90;99.90;;;;;;4978170;28;20022;-67
2023/08/31 00:49:16;;;;;;;11.40;5.65;;;11.80;99.90;;;;;;4975628;28;20030;-66
2023/08/31 00:51:48;;;;;;;21.35;6.10;;;11.80;99.90;;;;;;4978079;28;20026;-67
2023/08/31 00:54:16;;;;;;;18.23;5.85;;;11.80;99.90;;;;;;4975607;28;20073;-67
2023/08/31 00:56:41;;;;;;;10.48;5.78;;;11.70;99.90;;;;;;4977944;28;20038;-66
2023/08/31 00:59:07;;;;;;;10.07;5.93;;;11.70;99.90;;;;;;4953010;28;20135;-67
2023/08/31 01:01:42;;;;;;;7.40;5.68;;;11.70;99.90;;;;;;4977148;28;20492;-67
2023/08/31 01:04:24;;;;;;;12.80;6.07;;;11.70;99.90;;;;;;4977065;28;20451;-67
2023/08/31 01:07:16;;;;;;;14.00;7.03;;;11.60;99.90;;;;;;4977395;28;20669;-67
2023/08/31 01:10:10;;;;;;;10.95;7.00;;;11.60;99.90;;;;;;4975744;28;20034;-67
2023/08/31 01:13:11;;;;;;;11.23;6.00;;;11.70;99.90;;;;;;4988962;28;20037;-67
2023/08/31 01:15:39;;;;;;;16.90;5.97;;;11.60;99.90;;;;;;4979117;28;20080;-66
2023/08/31 01:18:06;;;;;;;11.45;6.20;;;11.60;99.90;;;;;;4978696;28;20039;-67
2023/08/31 01:20:42;;;;;;;14.02;6.78;;;11.60;99.90;;;;;;4977414;28;20038;-67
2023/08/31 01:23:16;;;;;;;10.77;6.45;;;11.60;99.90;;;;;;4976737;28;20069;-67
2023/08/31 01:25:42;;;;;;;;;;;11.60;99.90;;;;;;4976980;28;20030;-67
2023/08/31 01:28:10;;;;;;;13.18;5.93;;;11.60;99.90;;;;;;4975867;28;19914;-67
2023/08/31 01:30:35;;;;;;;13.93;5.00;;;11.60;99.90;;;;;;4975272;28;20129;-67
2023/08/31 01:33:02;;;;;;;11.02;5.75;;;11.60;99.90;;;;;;4980920;28;20109;-67
2023/08/31 01:35:34;;;;;;;13.35;6.47;;;11.70;99.90;;;;;;4977647;28;20031;-66
2023/08/31 01:38:02;;;;;;;9.63;5.72;;;11.70;99.90;;;;;;4977282;28;20023;-66
2023/08/31 01:40:36;;;;;;;11.95;6.35;;;11.70;99.90;;;;;;4978349;28;20053;-67
2023/08/31 01:43:05;;;;;;;10.80;5.55;;;11.70;99.90;;;;;;4982575;28;20038;-67
2023/08/31 01:45:37;;;;;;;12.88;5.97;;;11.70;99.90;;;;;;4981444;28;20041;-67
2023/08/31 01:48:03;;;;;;;11.90;5.18;;;11.80;99.90;;;;;;4982827;28;20022;-68
2023/08/31 01:50:29;;;;;;;12.55;5.72;;;11.80;99.90;;;;;;4978414;28;20052;-66
2023/08/31 01:52:55;;;;;;;10.45;5.20;;;11.80;99.90;;;;;;4981288;28;20027;-66
2023/08/31 01:55:21;;;;;;;12.32;5.85;;;11.80;99.90;;;;;;4983131;28;20731;-67
2023/08/31 01:57:47;;;;;;;11.75;5.70;;;11.80;99.90;;;;;;4985696;28;20552;-67
2023/08/31 02:00:15;;;;;;;8.77;5.35;;;11.80;99.90;;;;;;4957128;28;20060;-68
2023/08/31 02:02:41;;;;;;;12.73;5.97;;;11.70;99.90;;;;;;4978576;28;20030;-67
2023/08/31 02:05:08;;;;;;;7.78;4.80;;;11.60;99.90;;;;;;4977415;28;20033;-67
2023/08/31 02:07:33;;;;;;;11.48;5.38;;;11.50;99.90;;;;;;4979127;28;20118;-67
2023/08/31 02:09:59;;;;;;;11.20;4.93;;;11.40;99.90;;;;;;4977445;28;20034;-67
2023/08/31 02:12:24;;;;;;;9.60;4.63;;;11.30;99.90;;;;;;4980643;28;20739;-67
2023/08/31 02:14:50;;;;;;;12.25;5.38;;;11.30;99.90;;;;;;4977987;28;20034;-66
2023/08/31 02:17:16;;;;;;;7.13;5.82;;;11.30;99.90;;;;;;4977674;28;20068;-66
2023/08/31 02:19:41;;;;;;;14.13;5.95;;;11.30;99.90;;;;;;4982099;28;20042;-67
2023/08/31 02:22:07;;;;;;;7.50;4.82;;;11.40;99.90;;;;;;4978645;28;20038;-66
2023/08/31 02:24:33;;;;;;;11.57;5.05;;;11.40;99.90;;;;;;4979429;28;20039;-67
2023/08/31 02:26:58;;;;;;;10.23;5.68;;;11.40;99.90;;;;;;4979732;28;20369;-67
2023/08/31 02:29:24;;;;;;;11.57;6.35;;;11.40;99.90;;;;;;4979267;28;20082;-67
2023/08/31 02:31:49;;;;;;;11.13;5.93;;;11.30;99.90;;;;;;4977563;28;20030;-66
2023/08/31 02:34:15;;;;;;;12.90;6.57;;;11.40;99.90;;;;;;4979274;28;20034;-66
2023/08/31 02:36:41;;;;;;;12.10;5.53;;;11.50;99.90;;;;;;4978354;28;20034;-66
2023/08/31 02:39:06;;;;;;;8.82;5.47;;;11.50;99.90;;;;;;4978539;28;20061;-67
2023/08/31 02:41:32;;;;;;;12.27;5.65;;;11.50;99.90;;;;;;4978671;28;20065;-65
2023/08/31 02:43:58;;;;;;;11.43;5.35;;;11.60;99.90;;;;;;4979333;28;20546;-67
2023/08/31 02:46:24;;;;;;;14.20;5.75;;;11.60;99.90;;;;;;4979406;28;20030;-67
2023/08/31 02:48:50;;;;;;;8.63;6.03;;;11.70;99.90;;;;;;4980991;28;20503;-67
2023/08/31 02:51:15;;;;;;;12.50;5.30;;;11.70;99.90;;;;;;4981217;28;20113;-65
2023/08/31 02:53:41;;;;;;;11.80;5.93;;;11.70;99.90;;;;;;4981252;28;20038;-67
2023/08/31 02:56:07;;;;;;;14.57;5.25;;;11.70;99.90;;;;;;4978417;28;20118;-66
2023/08/31 02:58:33;;;;;;;10.57;4.63;;;11.70;99.90;;;;;;4956473;28;20035;-67
2023/08/31 03:01:13;;;;;;;14.68;6.38;;;11.70;99.90;;;;;;4977583;28;20031;-67
2023/08/31 03:03:39;;;;;;;10.68;6.13;;;11.70;99.90;;;;;;4979221;28;20026;-66
2023/08/31 03:06:09;;;;;;;12.55;5.35;;;11.70;99.90;;;;;;4978533;28;20015;-68
2023/08/31 03:08:36;;;;;;;10.20;5.40;;;11.70;99.90;;;;;;4977204;28;20125;-67
2023/08/31 03:11:05;;;;;;;14.13;5.60;;;11.70;99.90;;;;;;4976977;28;20030;-66
2023/08/31 03:13:34;;;;;;;12.52;6.20;;;11.70;99.90;;;;;;4979615;28;20030;-67
2023/08/31 03:16:00;;;;;;;11.18;5.65;;;11.80;99.90;;;;;;4978869;28;20060;-67
2023/08/31 03:18:26;;;;;;;9.73;5.53;;;11.80;99.90;;;;;;4976536;28;20034;-66
2023/08/31 03:20:52;;;;;;;8.02;5.10;;;11.70;99.90;;;;;;4977231;28;20038;-67
2023/08/31 03:23:17;;;;;;;8.75;5.55;;;11.80;99.90;;;;;;4976477;28;20030;-66
2023/08/31 03:25:43;;;;;;;14.80;6.53;;;11.80;99.90;;;;;;4978024;28;20069;-67
2023/08/31 03:28:09;;;;;;;12.00;4.63;;;11.80;99.90;;;;;;4976735;28;20501;-67
2023/08/31 03:30:35;;;;;;;10.75;6.20;;;11.80;99.90;;;;;;4978104;28;20489;-67
2023/08/31 03:33:02;;;;;;;10.35;5.85;;;11.90;99.90;;;;;;4978290;28;20034;-67
2023/08/31 03:35:28;;;;;;;6.97;5.13;;;11.90;99.90;;;;;;4975766;28;20033;-66
2023/08/31 03:37:54;;;;;;;10.13;5.13;;;11.90;99.90;;;;;;4979136;28;20034;-66
2023/08/31 03:40:20;;;;;;;8.65;5.53;;;11.90;99.90;;;;;;4979830;28;20048;-66
2023/08/31 03:42:45;;;;;;;8.40;5.03;;;11.90;99.90;;;;;;4978120;28;20790;-67
2023/08/31 03:45:11;;;;;;;8.20;4.43;;;11.90;99.90;;;;;;4976668;28;20030;-66
2023/08/31 03:47:37;;;;;;;10.68;4.90;;;11.90;99.90;;;;;;4978970;28;20034;-67
2023/08/31 03:50:04;;;;;;;8.75;4.07;;;11.90;99.90;;;;;;4977227;28;20111;-67
2023/08/31 03:52:29;;;;;;;7.00;3.67;;;11.90;99.90;;;;;;4977749;28;20034;-66
2023/08/31 03:54:55;;;;;;;6.50;4.18;;;11.90;99.90;;;;;;4975964;28;20034;-67
2023/08/31 03:57:21;;;;;;;10.20;4.65;;;11.90;99.90;;;;;;4976774;28;20041;-67
2023/08/31 03:59:46;;;;;;;5.95;4.82;;;12.00;99.90;;;;;;4956423;28;20110;-67
2023/08/31 04:02:12;;;;;;;7.50;5.00;;;12.00;99.90;;;;;;4976901;28;20089;-67
2023/08/31 04:04:38;;;;;;;7.28;4.95;;;12.00;99.90;;;;;;4977275;28;20097;-66
2023/08/31 04:07:03;;;;;;;8.43;4.30;;;12.10;99.90;;;;;;4977769;28;20034;-66
2023/08/31 04:09:30;;;;;;;6.68;4.30;;;12.00;99.90;;;;;;4974789;28;20404;-66
2023/08/31 04:11:55;;;;;;;7.30;4.88;;;12.10;99.90;;;;;;4977249;28;20034;-67
2023/08/31 04:14:21;;;;;;;11.68;4.30;;;12.00;99.90;;;;;;4976181;28;20031;-67
2023/08/31 04:16:50;;;;;;;6.55;4.63;;;12.00;99.90;;;;;;4979323;28;20078;-67
2023/08/31 04:19:16;;;;;;;11.57;3.95;;;12.10;99.90;;;;;;4978150;28;20084;-64
2023/08/31 04:21:42;;;;;;;9.27;4.53;;;12.00;99.90;;;;;;4978168;28;20419;-66
2023/08/31 04:24:07;;;;;;;5.38;3.67;;;12.00;99.90;;;;;;4979299;28;20031;-67
2023/08/31 04:26:33;;;;;;;6.00;4.05;;;12.00;99.90;;;;;;4979969;28;20448;-67
2023/08/31 04:28:58;;;;;;;13.40;4.20;;;12.00;99.90;;;;;;4979744;28;20058;-67
2023/08/31 04:31:24;;;;;;;11.40;5.28;;;12.10;99.90;;;;;;4979636;28;20089;-67
2023/08/31 04:33:53;;;;;;;6.63;3.90;;;12.10;99.90;;;;;;4979111;28;20051;-66
2023/08/31 04:36:22;;;;;;;6.93;4.03;;;12.10;99.90;;;;;;4977119;28;20022;-66
2023/08/31 04:38:51;;;;;;;10.77;4.18;;;12.10;99.90;;;;;;4974692;28;20027;-67
2023/08/31 04:41:17;;;;;;;7.40;4.03;;;12.10;99.90;;;;;;4979367;28;20073;-66
2023/08/31 04:43:43;;;;;;;9.38;4.25;;;12.10;99.90;;;;;;4976129;28;20141;-66
2023/08/31 04:46:09;;;;;;;5.75;4.53;;;12.20;99.90;;;;;;4975130;28;20416;-66
2023/08/31 04:48:36;;;;;;;8.10;4.22;;;12.10;99.90;;;;;;4975389;28;20034;-67
2023/08/31 04:51:03;;;;;;;6.75;4.47;;;12.10;99.90;;;;;;4976059;28;21369;-66
2023/08/31 04:53:30;;;;;;;7.40;4.43;;;12.10;99.90;;;;;;4977058;28;20038;-66
2023/08/31 04:55:55;;;;;;;8.00;4.80;;;12.10;99.90;;;;;;4975058;28;20054;-67
2023/08/31 04:58:21;;;;;;;7.88;4.85;;;12.10;99.90;;;;;;4979524;28;20062;-66
2023/08/31 05:00:47;;;;;;;7.03;4.43;;;12.20;99.90;;;;;;4955283;28;20078;-66
2023/08/31 05:03:13;;;;;;;11.90;4.53;;;12.10;99.90;;;;;;4976797;28;20117;-67
2023/08/31 05:05:39;;;;;;;9.85;4.35;;;12.10;99.90;;;;;;4983642;28;20030;-68
2023/08/31 05:08:05;;;;;;;7.03;4.28;;;12.20;99.90;;;;;;4981468;28;20043;-67
2023/08/31 05:10:30;;;;;;;5.60;4.30;;;12.20;99.90;;;;;;4977722;28;20109;-67
2023/08/31 05:12:56;;;;;;;7.47;4.22;;;12.20;99.90;;;;;;4985911;28;20204;-67
2023/08/31 05:15:22;;;;;;;7.82;4.68;;;12.20;99.90;;;;;;4979648;28;20038;-68
2023/08/31 05:17:48;;;;;;;10.13;4.57;;;12.10;99.90;;;;;;4982282;28;20423;-67
2023/08/31 05:20:14;;;;;;;6.07;4.18;;;12.10;99.90;;;;;;4980682;28;20031;-68
2023/08/31 05:22:40;;;;;;;6.57;4.15;;;12.10;99.90;;;;;;4982219;28;20034;-67
2023/08/31 05:25:05;;;;;;;11.82;4.40;;;12.20;99.90;;;;;;4981207;28;20031;-64
2023/08/31 05:27:31;;;;;;;8.98;4.78;;;12.20;99.90;;;;;;4979752;28;20054;-66
2023/08/31 05:29:57;;;;;;;12.05;4.10;;;12.20;99.90;;;;;;4982499;28;20042;-68
2023/08/31 05:32:22;;;;;;;10.15;5.22;;;12.20;99.90;;;;;;4978208;28;20026;-67
2023/08/31 05:34:48;;;;;;;6.72;4.15;;;12.20;99.90;;;;;;4981568;28;20027;-67
2023/08/31 05:37:14;;;;;;;7.60;4.10;;;12.30;99.90;;;;;;4980986;28;20033;-66
2023/08/31 05:39:39;;;;;;;6.22;3.65;;;12.30;99.90;;;;;;4978377;28;21807;-66
2023/08/31 05:42:05;;;;;;;7.95;3.85;;;12.30;99.90;;;;;;4979357;28;20485;-65
2023/08/31 05:44:31;;;;;;;5.53;3.90;;;12.40;99.90;;;;;;4979232;28;20042;-67
2023/08/31 05:46:56;;;;;;;7.55;3.63;;;12.40;99.90;;;;;;4978757;28;20178;-66
2023/08/31 05:49:22;;;;;;;9.45;4.03;;;12.40;99.90;;;;;;4978959;28;20031;-67
2023/08/31 05:51:49;;;;;;;6.03;4.03;;;12.50;99.90;;;;;;4981341;28;20030;-67
2023/08/31 05:54:14;;;;;;;6.25;3.45;;;12.60;99.90;;;;;;4977595;28;20035;-67
2023/08/31 05:56:40;;;;;;;17.70;4.22;;;12.60;99.90;;;;;;4982214;28;20046;-67
2023/08/31 05:59:06;;;;;;;7.63;3.97;;;12.70;99.90;;;;;;4959573;28;20073;-67
2023/08/31 06:01:32;;;;;;;7.40;3.25;;;12.80;99.90;;;;;;4979843;28;20038;-66
2023/08/31 06:03:58;;;;;;;9.75;3.35;;;12.80;99.90;;;;;;4977470;28;20540;-67
2023/08/31 06:06:24;;;;;;;4.50;2.75;;;12.90;99.90;;;;;;4980857;28;20546;-67
2023/08/31 06:08:49;;;;;;;9.65;3.60;;;13.00;99.90;;;;;;4980974;28;20041;-67
2023/08/31 06:11:15;;;;;;;5.07;2.97;;;13.10;99.90;;;;;;4980096;28;20065;-66
2023/08/31 06:13:41;;;;;;;4.28;2.85;;;13.10;99.90;;;;;;4981216;28;20121;-67
2023/08/31 06:16:07;;;;;;;3.47;2.67;;;13.20;99.90;;;;;;4978438;28;20045;-68
2023/08/31 06:18:32;;;;;;;6.07;3.08;;;13.30;99.90;;;;;;4976781;28;20035;-67
2023/08/31 06:20:58;;;;;;;4.63;2.47;;;13.40;99.90;;;;;;4980235;28;20057;-67
2023/08/31 06:23:24;;;;;;;5.55;2.85;;;13.60;99.90;;;;;;4980095;28;20719;-66
2023/08/31 06:25:49;;;;;;;5.82;3.00;;;13.70;99.90;;;;;;4979046;28;20708;-67
2023/08/31 06:28:16;;;;;;;3.15;2.33;;;13.90;99.90;;;;;;4979701;28;20038;-67
2023/08/31 06:30:46;;;;;;;8.93;2.63;;;14.10;99.90;;;;;;4977408;28;20045;-68
2023/08/31 06:33:13;;;;;;;6.15;2.80;;;14.20;99.90;;;;;;4979557;28;20031;-66
2023/08/31 06:35:38;;;;;;;3.72;2.15;;;14.40;99.90;;;;;;4979580;28;20038;-66
2023/08/31 06:38:04;;;;;;;4.38;2.20;;;14.50;99.90;;;;;;4976518;28;20038;-67
2023/08/31 06:40:30;;;;;;;5.82;2.70;;;14.80;99.90;;;;;;4979269;28;20076;-67
2023/08/31 06:42:55;;;;;;;3.50;1.85;;;15.40;99.90;;;;;;4980630;28;20041;-66
2023/08/31 06:45:21;;;;;;;2.58;1.50;;;16.30;99.90;;;;;;4979110;28;20031;-67
2023/08/31 06:47:47;;;;;;;4.43;1.95;;;17.30;99.90;;;;;;4978264;28;20169;-65
2023/08/31 06:50:12;;;;;;;3.17;1.60;;;18.30;99.90;;;;;;4978879;28;20046;-65
2023/08/31 06:52:38;;;;;;;5.78;1.95;;;18.80;99.90;;;;;;4975329;28;20444;-68
2023/08/31 06:55:05;;;;;;;7.28;2.22;;;18.60;99.90;;;;;;4979041;28;20042;-67
2023/08/31 06:57:31;;;;;;;3.58;1.63;;;19.50;99.90;;;;;;4977302;28;20054;-67
2023/08/31 06:59:57;;;;;;;3.78;1.33;;;20.20;99.90;;;;;;4961951;28;20058;-65
2023/08/31 07:02:26;;;;;;;4.75;1.85;;;21.20;99.90;;;;;;4976226;28;20027;-65
2023/08/31 07:04:52;;;;;;;4.03;1.40;;;21.50;99.90;;;;;;4983704;28;20026;-65
2023/08/31 07:07:18;;;;;;;2.53;1.40;;;21.80;99.90;;;;;;4978099;28;20069;-65
2023/08/31 07:09:45;;;;;;;6.55;1.70;;;21.70;98.70;;;;;;4978794;28;20052;-67
2023/08/31 07:12:11;;;;;;;3.65;1.75;;;21.90;99.80;;;;;;4980516;28;20472;-68
2023/08/31 07:14:36;;;;;;;3.25;1.63;;;21.80;98.50;;;;;;4977435;28;20045;-68
2023/08/31 07:17:02;;;;;;;3.05;1.45;;;21.90;99.90;;;;;;4975506;28;20042;-64
2023/08/31 07:19:28;;;;;;;3.28;1.38;;;21.80;98.20;;;;;;4979693;28;20121;-67
2023/08/31 07:21:54;;;;;;;3.22;1.45;;;22.30;99.30;;;;;;4978243;28;20492;-66
2023/08/31 07:24:21;;;;;;;4.43;1.30;;;22.20;98.60;;;;;;4979939;28;20570;-68
2023/08/31 07:26:47;;;;;;;5.28;1.65;;;22.30;97.70;;;;;;4977580;28;20484;-67
2023/08/31 07:29:13;;;;;;;4.75;1.27;;;21.20;98.10;;;;;;4978216;28;20036;-67
2023/08/31 07:31:38;;;;;;;2.58;1.50;;;21.10;99.90;;;;;;4977350;28;20037;-67
2023/08/31 07:34:04;;;;;;;3.22;1.00;;;21.20;99.90;;;;;;4976002;28;20488;-67
2023/08/31 07:36:30;;;;;;;3.45;1.40;;;21.20;99.90;;;;;;4980182;28;20579;-68
2023/08/31 07:38:55;;;;;;;7.55;1.98;;;21.30;99.90;;;;;;4980811;28;20211;-68
2023/08/31 07:41:22;;;;;;;3.25;1.25;;;21.60;99.90;;;;;;4976882;28;20496;-67
2023/08/31 07:43:49;;;;;;;2.75;1.40;;;21.20;98.30;;;;;;4977811;28;20026;-67
2023/08/31 07:46:14;;;;;;;3.13;0.90;;;21.50;99.40;;;;;;4976364;28;20030;-67
2023/08/31 07:48:41;;;;;;;5.90;1.60;;;21.70;99.70;;;;;;4976685;28;20025;-67
2023/08/31 07:51:07;;;;;;;4.68;1.58;;;22.00;98.00;;;;;;4977014;28;20125;-68
2023/08/31 07:53:32;;;;;;;3.83;1.33;;;22.40;97.50;;;;;;4978025;28;20077;-66
2023/08/31 07:55:58;;;;;;;4.10;1.58;;;23.00;98.10;;;;;;4979223;28;20034;-65
2023/08/31 07:58:23;;;;;;;3.20;1.30;;;23.30;97.80;;;;;;4979046;28;20023;-64
2023/08/31 08:00:53;;;;;;;5.88;1.88;;;23.90;96.20;;;;;;4952609;28;20042;-66
2023/08/31 08:03:19;;;;;;;3.00;1.27;;;24.00;95.80;;;;;;4977304;28;20026;-65
2023/08/31 08:05:44;;;;;;;2.92;1.70;;;23.90;93.20;;;;;;4983871;28;20038;-65
2023/08/31 08:08:10;;;;;;;3.67;1.30;;;24.00;93.40;;;;;;4978168;28;20026;-65
2023/08/31 08:10:36;;;;;;;3.28;1.35;;;23.30;93.90;;;;;;4977099;28;20050;-67
2023/08/31 08:13:03;;;;;;;4.70;1.70;;;23.10;94.50;;;;;;4978332;28;20058;-67
2023/08/31 08:15:29;;;;;;;5.97;1.30;;;23.30;95.10;;;;;;4976035;28;20027;-68
2023/08/31 08:17:54;;;;;;;5.20;1.50;;;23.80;95.60;;;;;;4978286;28;20518;-67
2023/08/31 08:20:20;;;;;;;2.03;1.45;;;24.50;94.10;;;;;;4977211;28;20135;-65
2023/08/31 08:22:47;;;;;;;7.22;1.55;;;23.80;92.20;;;;;;4974469;28;20030;-68
2023/08/31 08:25:13;;;;;;;4.35;1.60;;;23.50;93.60;;;;;;4979283;28;20544;-66
2023/08/31 08:27:38;;;;;;;2.88;1.45;;;23.60;93.00;;;;;;4976298;28;20129;-65
2023/08/31 08:30:04;;;;;;;8.20;1.75;;;23.10;93.20;;;;;;4978088;28;20392;-64
2023/08/31 08:32:30;;;;;;;5.22;1.83;;;23.00;96.50;;;;;;4978102;28;20434;-66
2023/08/31 08:34:55;;;;;;;5.28;1.83;;;23.00;95.80;;;;;;4979490;28;20027;-66
2023/08/31 08:37:21;;;;;;;5.13;1.73;;;22.00;96.00;;;;;;4976561;28;20224;-64
2023/08/31 08:39:50;;;;;;;4.35;1.55;;;21.30;97.50;;;;;;4975958;28;20046;-65
2023/08/31 08:42:17;;;;;;;5.20;1.50;;;21.40;99.20;;;;;;4980589;28;20121;-65
2023/08/31 08:44:44;;;;;;;3.70;1.33;;;21.40;97.20;;;;;;4980665;28;20055;-65
2023/08/31 08:47:11;;;;;;;3.92;1.20;;;21.70;98.10;;;;;;4980902;28;20038;-64
2023/08/31 08:49:38;;;;;;;3.78;1.55;;;22.10;96.70;;;;;;4981957;28;20106;-65
2023/08/31 08:52:04;;;;;;;5.95;1.20;;;22.80;95.80;;;;;;4979892;28;20050;-65
2023/08/31 08:54:30;;;;;;;2.63;1.30;;;22.60;97.10;;;;;;4981802;28;20052;-65
2023/08/31 08:56:56;;;;;;;6.55;1.58;;;22.30;96.20;;;;;;4981436;28;20035;-65
2023/08/31 08:59:22;;;;;;;4.68;1.40;;;22.10;96.30;;;;;;4956039;28;22022;-65
2023/08/31 09:01:48;;;;;;;4.55;1.67;;;22.20;97.20;;;;;;4979814;28;20105;-65
2023/08/31 09:04:14;;;;;;;3.05;1.40;;;22.70;96.00;;;;;;4981490;28;21203;-65
2023/08/31 09:06:40;;;;;;;3.78;1.50;;;22.90;96.70;;;;;;4978578;28;20407;-66
2023/08/31 09:09:09;;;;;;;5.38;1.98;;;23.10;95.10;;;;;;4981317;28;20031;-66
2023/08/31 09:11:35;;;;;;;5.57;1.50;;;23.20;94.70;;;;;;4978735;28;20061;-65
2023/08/31 09:14:15;;;;;;;3.45;1.70;;;23.50;95.20;;;;;;4981179;28;20038;-65
2023/08/31 09:16:47;;;;;;;2.60;1.58;;;24.10;92.90;;;;;;4986609;28;20023;-65
2023/08/31 09:19:24;;;;;;;4.43;2.17;;;24.60;93.30;;;;;;4980444;28;20077;-65
2023/08/31 09:21:51;;;;;;;3.63;1.27;;;24.80;92.30;;;;;;4980943;28;20512;-65
2023/08/31 09:24:18;;;;;;;5.18;1.38;;;24.40;91.70;;;;;;4981833;28;20041;-65
2023/08/31 09:26:52;;;;;;;2.88;1.10;;;23.50;92.00;;;;;;4980799;28;20023;-66
2023/08/31 09:29:17;;;;;;;2.58;1.13;;;22.80;93.50;;;;;;4981141;28;20088;-64
2023/08/31 09:31:45;;;;;;;3.15;1.10;;;22.60;95.00;;;;;;4980308;28;20038;-65
2023/08/31 09:34:11;;;;;;;2.65;1.13;;;22.50;95.00;;;;;;4979725;28;20034;-65
2023/08/31 09:36:37;;;;;;;3.72;1.00;;;22.40;95.30;;;;;;4980898;28;20032;-65
2023/08/31 09:39:04;;;;;;;3.63;1.20;;;22.30;95.80;;;;;;4980348;28;20080;-65
2023/08/31 09:41:30;;;;;;;5.05;1.40;;;22.40;93.60;;;;;;4981857;28;20034;-67
2023/08/31 09:43:56;;;;;;;4.53;1.30;;;22.40;94.50;;;;;;4979823;28;20396;-64
2023/08/31 09:46:22;;;;;;;2.47;0.95;;;22.30;94.00;;;;;;4979188;28;20031;-65
2023/08/31 09:48:48;;;;;;;2.92;0.98;;;22.20;93.30;;;;;;4982050;28;20030;-65
2023/08/31 09:51:17;;;;;;;3.20;0.90;;;22.60;94.20;;;;;;4978259;28;20041;-66
2023/08/31 09:53:45;;;;;;;3.03;1.00;;;23.20;92.00;;;;;;4981017;28;20114;-65
2023/08/31 09:56:18;;;;;;;3.42;1.25;;;23.10;91.80;;;;;;4983690;28;20046;-66
2023/08/31 09:58:44;;;;;;;3.08;0.80;;;22.80;91.30;;;;;;4980373;28;20057;-66
2023/08/31 10:01:09;;;;;;;2.03;0.80;;;23.20;91.60;;;;;;4960917;28;20404;-67
2023/08/31 10:03:35;;;;;;;3.17;1.00;;;24.10;91.50;;;;;;4978236;28;20057;-67
2023/08/31 10:06:02;;;;;;;2.33;1.00;;;24.10;90.20;;;;;;5000898;28;20026;-67
2023/08/31 10:08:31;;;;;;;9.13;1.35;;;24.00;90.60;;;;;;4977787;28;20027;-69
2023/08/31 10:11:00;;;;;;;3.85;1.15;;;23.20;89.40;;;;;;4981491;28;20030;-69
2023/08/31 10:13:28;;;;;;;2.75;0.82;;;22.40;92.50;;;;;;4978338;28;20497;-68
2023/08/31 10:15:54;;;;;;;7.03;1.05;;;22.30;91.70;;;;;;4978892;28;20023;-69
2023/08/31 10:18:21;;;;;;;2.10;0.90;;;22.20;91.50;;;;;;4982276;28;20041;-69
2023/08/31 10:20:46;;;;;;;3.92;0.73;;;22.20;91.70;;;;;;4979240;28;20864;-68
2023/08/31 10:23:13;;;;;;;2.13;0.75;;;22.30;92.90;;;;;;4980685;28;20052;-68
2023/08/31 10:25:47;;;;;;;3.80;1.10;;;22.80;93.50;;;;;;4977063;28;20073;-68
2023/08/31 10:28:20;;;;;;;4.72;0.80;;;22.80;92.90;;;;;;4978131;28;20058;-69
2023/08/31 10:31:06;;;;;;;3.60;1.00;;;22.90;92.30;;;;;;4982022;28;20038;-68
2023/08/31 10:33:44;;;;;;;4.57;0.90;;;22.80;91.20;;;;;;4981042;28;20035;-68
2023/08/31 10:36:14;;;;;;;1.83;0.80;;;22.30;92.80;;;;;;4981999;28;20034;-68
2023/08/31 10:38:41;;;;;;;2.97;0.90;;;21.90;93.30;;;;;;4976686;28;20581;-69
2023/08/31 10:41:06;;;;;;;5.30;1.10;;;21.70;94.60;;;;;;4979836;28;20034;-68
2023/08/31 10:43:50;;;;;;;5.38;1.20;;;21.30;95.10;;;;;;4976623;28;20547;-68
2023/08/31 10:46:27;;;;;;;4.90;0.88;;;20.90;94.30;;;;;;4980613;28;20026;-68
2023/08/31 10:48:53;;;;;;;2.17;0.90;;;21.00;96.20;;;;;;4978941;28;20046;-68
2023/08/31 10:51:25;;;;;;;4.35;1.02;;;21.30;96.20;;;;;;4979457;28;20042;-67
2023/08/31 10:53:51;;;;;;;2.00;0.90;;;21.80;95.30;;;;;;4978882;28;20121;-68
2023/08/31 10:56:18;;;;;;;6.72;1.15;;;21.90;93.30;;;;;;4979453;28;20101;-68
2023/08/31 10:58:58;;;;;;;3.50;0.93;;;21.90;94.20;;;;;;4978058;28;20664;-68
2023/08/31 11:01:52;;;;;;;3.17;1.50;;;21.70;93.50;;;;;;4958804;28;20049;-68
2023/08/31 11:04:18;;;;;;;3.92;0.85;;;21.80;93.90;;;;;;4998840;28;21195;-68
2023/08/31 11:06:44;;;;;;;2.30;1.30;;;21.40;92.90;;;;;;4976777;28;20113;-69
2023/08/31 11:09:21;;;;;;;2.83;0.80;;;21.40;93.50;;;;;;4981428;28;20046;-68
2023/08/31 11:11:50;;;;;;;4.03;1.10;;;21.50;92.40;;;;;;4977406;28;20050;-68
2023/08/31 11:14:16;;;;;;;5.05;0.90;;;21.20;93.50;;;;;;4978323;28;20088;-68
2023/08/31 11:16:43;;;;;;;3.38;1.00;;;21.00;92.60;;;;;;4976229;28;20539;-68
2023/08/31 11:19:08;;;;;;;2.17;0.93;;;20.60;92.60;;;;;;4978015;28;20118;-68
2023/08/31 11:21:36;;;;;;;2.70;0.85;;;20.50;94.20;;;;;;4979126;28;20121;-68
2023/08/31 11:24:02;;;;;;;4.25;0.80;;;20.80;94.60;;;;;;4977979;28;20457;-68
2023/08/31 11:26:31;;;;;;;3.22;1.02;;;21.20;94.10;;;;;;4977422;28;20085;-68
2023/08/31 11:28:57;;;;;;;2.30;0.93;;;21.50;92.70;;;;;;4980701;28;20018;-69
2023/08/31 11:31:25;;;;;;;4.50;1.02;;;21.70;92.50;;;;;;4977792;28;20153;-68
2023/08/31 11:33:51;;;;;;;3.58;1.05;;;21.70;92.50;;;;;;4976096;28;20035;-68
2023/08/31 11:36:17;;;;;;;7.03;1.08;;;21.40;91.80;;;;;;4976842;28;20045;-68
2023/08/31 11:38:44;;;;;;;6.38;1.20;;;21.30;92.90;;;;;;4978012;28;20034;-68
2023/08/31 11:41:09;;;;;;;3.22;1.10;;;21.40;92.50;;;;;;4998260;28;20031;-68
2023/08/31 11:43:37;;;;;;;4.75;1.10;;;21.40;92.80;;;;;;4977678;28;20027;-68
2023/08/31 11:46:04;;;;;;;3.50;1.35;;;21.40;92.10;;;;;;4978577;28;20037;-68
2023/08/31 11:48:30;;;;;;;6.25;1.52;;;21.70;92.70;;;;;;4976870;28;20033;-68
2023/08/31 11:50:56;;;;;;;6.00;1.48;;;21.80;92.10;;;;;;4977493;28;20036;-68
2023/08/31 11:53:22;;;;;;;1.92;0.98;;;21.70;90.50;;;;;;4979058;28;20671;-67
2023/08/31 11:55:53;;;;;;;3.08;1.60;;;21.40;91.30;;;;;;4977959;28;20077;-68
2023/08/31 11:58:21;;;;;;;3.35;1.10;;;21.20;93.10;;;;;;4977933;28;20034;-68
2023/08/31 12:01:00;;;;;;;1.67;1.10;;;20.60;93.30;;;;;;4956667;28;20042;-69
2023/08/31 12:03:27;;;;;;;2.47;1.20;;;20.40;95.70;;;;;;4981338;28;20038;-69
2023/08/31 12:05:55;;;;;;;4.45;1.08;;;20.20;96.20;;;;;;4975312;28;20077;-68
2023/08/31 12:08:27;;;;;;;2.78;1.30;;;19.90;96.60;;;;;;4974433;28;20027;-68
2023/08/31 12:10:53;;;;;;;3.35;1.20;;;19.50;98.40;;;;;;4974876;28;20030;-68
2023/08/31 12:13:19;;;;;;;5.88;1.20;;;19.10;99.90;;;;;;4978983;28;20046;-68
2023/08/31 12:15:45;;;;;;;4.78;1.25;;;18.90;99.90;;;;;;4975836;28;20060;-68
2023/08/31 12:18:14;;;;;;;9.00;1.67;;;18.50;99.90;;;;;;4976937;28;20026;-68
2023/08/31 12:20:44;;;;;;;2.25;1.27;;;18.20;99.90;;;;;;4975661;28;20041;-68
2023/08/31 12:23:10;;;;;;;6.30;1.52;;;18.10;99.90;;;;;;4973817;28;20031;-68
2023/08/31 12:25:36;;;;;;;3.97;1.40;;;18.20;99.90;;;;;;4973679;28;20030;-69
2023/08/31 12:28:02;;;;;;;3.40;1.10;;;18.40;99.90;;;;;;4976133;28;20038;-68
2023/08/31 12:30:28;;;;;;;2.58;1.08;;;18.50;99.90;;;;;;4975626;28;20484;-68
2023/08/31 12:32:53;;;;;;;2.88;1.00;;;18.70;99.90;;;;;;4974681;28;20027;-68
2023/08/31 12:35:19;;;;;;;1.95;1.00;;;18.90;99.90;;;;;;4976626;28;20029;-67
2023/08/31 12:37:45;;;;;;;2.92;1.23;;;19.30;99.90;;;;;;4976359;28;20034;-68
2023/08/31 12:40:11;;;;;;;1.67;1.00;;;19.80;99.90;;;;;;4977601;28;20557;-69
2023/08/31 12:42:37;;;;;;;2.55;1.00;;;19.80;99.60;;;;;;4978288;28;20042;-68
2023/08/31 12:45:05;;;;;;;2.95;1.20;;;19.80;99.90;;;;;;4975883;28;20038;-68